Time;durP1;ratioP1;P1;durP2;ratioP2;P2;SDS_P1;SDS_P2;PMS_P1;PMS_P2;Temp;Humidity;BMP_temperature;BMP_pressure;BME280_temperature;BME280_humidity;BME280_pressure;Samples;Min_cycle;Max_cycle;Signal;HPM_P1;HPM_P2
2021/09/06 00:02:03;;;;;;;4.47;2.10;;;;;;;;;;5066168;28;20036;-54
2021/09/06 00:04:29;;;;;;;2.85;1.80;;;;;;;;;;5060340;28;20021;-53
2021/09/06 00:06:56;;;;;;;3.28;2.03;;;;;;;;;;5057233;28;20017;-51
2021/09/06 00:09:22;;;;;;;5.93;2.40;;;;;;;;;;5051312;28;20123;-51
2021/09/06 00:11:48;;;;;;;7.18;2.80;;;;;;;;;;5058797;28;20104;-54
2021/09/06 00:14:14;;;;;;;6.53;2.30;;;;;;;;;;5058064;28;20362;-53
2021/09/06 00:16:40;;;;;;;3.65;2.17;;;;;;;;;;5057344;28;20027;-57
2021/09/06 00:19:06;;;;;;;3.05;1.85;;;;;;;;;;5048265;28;20053;-57
2021/09/06 00:21:32;;;;;;;3.08;1.73;;;;;;;;;;5058709;28;20402;-56
2021/09/06 00:23:58;;;;;;;3.47;1.70;;;;;;;;;;5052348;28;20092;-54
2021/09/06 00:26:25;;;;;;;3.78;2.17;;;;;;;;;;5051087;28;20017;-55
2021/09/06 00:28:51;;;;;;;3.30;2.00;;;;;;;;;;5038583;28;20026;-57
2021/09/06 00:31:17;;;;;;;3.10;2.03;;;;;;;;;;5051657;28;20031;-57
2021/09/06 00:33:43;;;;;;;3.72;1.77;;;;;;;;;;5070127;28;20510;-55
2021/09/06 00:36:09;;;;;;;3.78;2.22;;;;;;;;;;5050545;28;20029;-55
2021/09/06 00:38:35;;;;;;;5.05;2.03;;;;;;;;;;5043028;28;20029;-56
2021/09/06 00:41:01;;;;;;;3.03;1.73;;;;;;;;;;5059452;28;20032;-56
2021/09/06 00:43:28;;;;;;;3.10;1.77;;;;;;;;;;5054435;28;20017;-52
2021/09/06 00:45:56;;;;;;;3.85;2.00;;;;;;;;;;5053921;28;20036;-52
2021/09/06 00:48:24;;;;;;;5.07;1.77;;;;;;;;;;5045890;28;20032;-55
2021/09/06 00:50:50;;;;;;;4.95;1.73;;;;;;;;;;5056075;28;20033;-53
2021/09/06 00:53:16;;;;;;;4.18;1.70;;;;;;;;;;5047699;28;20109;-53
2021/09/06 00:55:43;;;;;;;2.92;2.05;;;;;;;;;;5058095;28;20515;-52
2021/09/06 00:58:09;;;;;;;3.83;1.95;;;;;;;;;;5043728;28;20106;-51
2021/09/06 01:00:35;;;;;;;3.33;2.00;;;;;;;;;;5065793;28;20080;-55
2021/09/06 01:03:01;;;;;;;2.95;1.85;;;;;;;;;;5053133;28;20115;-57
2021/09/06 01:05:27;;;;;;;5.07;2.10;;;;;;;;;;5059206;28;20096;-56
2021/09/06 01:07:53;;;;;;;3.25;1.80;;;;;;;;;;5041442;28;20124;-57
2021/09/06 01:10:19;;;;;;;3.90;1.90;;;;;;;;;;5048985;28;20029;-53
2021/09/06 01:12:45;;;;;;;3.20;1.85;;;;;;;;;;5065612;28;20056;-57
2021/09/06 01:15:12;;;;;;;2.50;1.52;;;;;;;;;;5055141;28;20022;-55
2021/09/06 01:17:38;;;;;;;4.25;1.88;;;;;;;;;;5044245;28;20037;-54
2021/09/06 01:20:07;;;;;;;4.40;2.00;;;;;;;;;;5058384;28;20024;-51
2021/09/06 01:22:34;;;;;;;3.72;2.00;;;;;;;;;;5042619;28;20044;-54
2021/09/06 01:25:00;;;;;;;2.90;1.60;;;;;;;;;;5061348;28;20433;-52
2021/09/06 01:27:26;;;;;;;2.58;1.60;;;;;;;;;;5051717;28;20043;-57
2021/09/06 01:29:52;;;;;;;6.25;2.33;;;;;;;;;;5052537;28;20111;-57
2021/09/06 01:32:18;;;;;;;4.13;1.88;;;;;;;;;;5054370;28;20032;-57
2021/09/06 01:34:44;;;;;;;2.75;1.67;;;;;;;;;;5039061;28;20139;-57
2021/09/06 01:37:10;;;;;;;3.95;2.10;;;;;;;;;;5052663;28;20108;-55
2021/09/06 01:39:35;;;;;;;2.38;1.83;;;;;;;;;;5041362;28;20025;-53
2021/09/06 01:42:01;;;;;;;3.10;1.63;;;;;;;;;;5048478;28;20033;-56
2021/09/06 01:44:27;;;;;;;3.40;1.63;;;;;;;;;;5045823;28;20489;-52
2021/09/06 01:46:53;;;;;;;3.90;1.90;;;;;;;;;;5046351;28;20109;-55
2021/09/06 01:49:19;;;;;;;3.70;1.65;;;;;;;;;;5036511;28;20489;-52
2021/09/06 01:51:46;;;;;;;4.40;1.75;;;;;;;;;;5041048;28;20060;-52
2021/09/06 01:54:11;;;;;;;3.58;1.85;;;;;;;;;;5063277;28;20163;-56
2021/09/06 01:56:38;;;;;;;2.47;1.55;;;;;;;;;;5047683;28;20037;-53
2021/09/06 01:59:04;;;;;;;3.38;1.80;;;;;;;;;;5055659;28;20107;-55
2021/09/06 02:01:30;;;;;;;4.45;1.95;;;;;;;;;;5056842;28;20457;-50
2021/09/06 02:03:56;;;;;;;5.15;1.92;;;;;;;;;;5056762;28;20031;-52
2021/09/06 02:06:22;;;;;;;3.47;1.75;;;;;;;;;;5056223;28;20036;-53
2021/09/06 02:08:48;;;;;;;1.98;1.52;;;;;;;;;;5053967;28;20074;-54
2021/09/06 02:11:15;;;;;;;5.82;2.40;;;;;;;;;;5049048;28;20033;-52
2021/09/06 02:13:41;;;;;;;3.38;1.80;;;;;;;;;;5057820;28;20116;-56
2021/09/06 02:16:07;;;;;;;4.32;1.80;;;;;;;;;;5030822;28;20123;-57
2021/09/06 02:18:33;;;;;;;3.67;2.03;;;;;;;;;;5060255;28;20059;-57
2021/09/06 02:20:59;;;;;;;3.35;1.95;;;;;;;;;;5052107;28;20028;-57
2021/09/06 02:23:25;;;;;;;4.93;2.20;;;;;;;;;;5059313;28;20020;-57
2021/09/06 02:25:51;;;;;;;6.07;2.50;;;;;;;;;;5057135;28;20158;-57
2021/09/06 02:28:17;;;;;;;3.65;2.00;;;;;;;;;;5052670;28;20440;-53
2021/09/06 02:30:43;;;;;;;3.95;1.33;;;;;;;;;;5051296;28;20028;-57
2021/09/06 02:33:09;;;;;;;3.83;1.92;;;;;;;;;;5051349;28;20032;-56
2021/09/06 02:35:35;;;;;;;3.40;1.65;;;;;;;;;;5057785;28;20028;-55
2021/09/06 02:38:01;;;;;;;3.47;1.77;;;;;;;;;;5053064;28;20044;-55
2021/09/06 02:40:27;;;;;;;3.88;1.85;;;;;;;;;;5064948;28;20021;-54
2021/09/06 02:42:53;;;;;;;5.03;2.10;;;;;;;;;;5046451;28;20037;-53
2021/09/06 02:45:19;;;;;;;4.45;1.80;;;;;;;;;;5058391;28;20490;-52
2021/09/06 02:47:46;;;;;;;3.78;2.20;;;;;;;;;;5044077;28;20108;-55
2021/09/06 02:50:13;;;;;;;3.22;1.60;;;;;;;;;;5049392;28;20104;-54
2021/09/06 02:52:39;;;;;;;4.85;2.03;;;;;;;;;;5058210;28;20048;-52
2021/09/06 02:55:05;;;;;;;4.35;2.08;;;;;;;;;;5055297;28;20025;-54
2021/09/06 02:57:31;;;;;;;3.92;1.70;;;;;;;;;;5049546;28;20111;-56
2021/09/06 02:59:57;;;;;;;3.17;1.92;;;;;;;;;;5048803;28;21402;-57
2021/09/06 03:02:23;;;;;;;3.00;1.90;;;;;;;;;;5052485;28;20025;-57
2021/09/06 03:04:49;;;;;;;4.18;1.83;;;;;;;;;;5057897;28;20112;-55
2021/09/06 03:07:15;;;;;;;3.22;1.85;;;;;;;;;;5054880;28;20024;-55
2021/09/06 03:09:41;;;;;;;4.47;1.90;;;;;;;;;;5059026;28;20025;-56
2021/09/06 03:12:07;;;;;;;4.55;1.88;;;;;;;;;;5060980;28;20374;-56
2021/09/06 03:14:33;;;;;;;3.58;2.00;;;;;;;;;;5054685;28;20025;-55
2021/09/06 03:16:59;;;;;;;4.00;1.98;;;;;;;;;;5049222;28;20029;-54
2021/09/06 03:19:25;;;;;;;3.30;1.90;;;;;;;;;;5050743;28;20124;-55
2021/09/06 03:21:51;;;;;;;3.65;1.90;;;;;;;;;;5060354;28;20495;-57
2021/09/06 03:24:17;;;;;;;3.30;1.90;;;;;;;;;;5058109;28;20021;-54
2021/09/06 03:26:43;;;;;;;3.47;2.20;;;;;;;;;;5055615;28;20029;-51
2021/09/06 03:29:09;;;;;;;3.70;2.08;;;;;;;;;;5051373;28;20424;-56
2021/09/06 03:31:35;;;;;;;3.65;1.98;;;;;;;;;;5064168;28;20021;-53
2021/09/06 03:34:02;;;;;;;3.00;2.05;;;;;;;;;;5067339;28;20031;-56
2021/09/06 03:36:28;;;;;;;5.53;2.03;;;;;;;;;;5052466;28;20102;-55
2021/09/06 03:38:55;;;;;;;3.70;2.13;;;;;;;;;;5047630;28;20041;-53
2021/09/06 03:41:21;;;;;;;3.15;2.00;;;;;;;;;;5063122;28;20021;-55
2021/09/06 03:43:48;;;;;;;3.58;2.10;;;;;;;;;;5050088;28;20472;-51
2021/09/06 03:46:14;;;;;;;4.13;2.08;;;;;;;;;;5060827;28;20029;-56
2021/09/06 03:48:40;;;;;;;3.53;1.88;;;;;;;;;;5043394;28;20033;-57
2021/09/06 03:51:06;;;;;;;6.18;2.13;;;;;;;;;;5058726;28;20021;-57
2021/09/06 03:53:32;;;;;;;4.68;2.33;;;;;;;;;;5060944;28;20056;-53
2021/09/06 03:55:58;;;;;;;4.22;1.98;;;;;;;;;;5060155;28;20028;-57
2021/09/06 03:58:24;;;;;;;3.15;1.73;;;;;;;;;;5053188;28;20032;-57
2021/09/06 04:00:50;;;;;;;4.63;2.30;;;;;;;;;;5054912;28;20421;-57
2021/09/06 04:03:16;;;;;;;3.88;1.90;;;;;;;;;;5058014;28;20036;-54
2021/09/06 04:05:42;;;;;;;7.60;2.15;;;;;;;;;;5053640;28;20025;-55
2021/09/06 04:08:08;;;;;;;3.67;2.03;;;;;;;;;;5048912;28;20091;-55
2021/09/06 04:10:34;;;;;;;3.30;1.70;;;;;;;;;;5055301;28;20892;-56
2021/09/06 04:13:00;;;;;;;4.80;2.13;;;;;;;;;;5049266;28;20394;-51
2021/09/06 04:15:26;;;;;;;3.65;2.03;;;;;;;;;;5051141;28;20444;-54
2021/09/06 04:17:52;;;;;;;3.67;1.88;;;;;;;;;;5044068;28;20418;-54
2021/09/06 04:20:18;;;;;;;3.40;2.20;;;;;;;;;;5048275;28;20509;-52
2021/09/06 04:22:45;;;;;;;3.22;1.75;;;;;;;;;;5047445;28;20478;-53
2021/09/06 04:25:11;;;;;;;2.92;1.90;;;;;;;;;;5042527;28;20409;-56
2021/09/06 04:27:37;;;;;;;2.80;1.83;;;;;;;;;;5046550;28;20393;-51
2021/09/06 04:30:05;;;;;;;2.50;1.70;;;;;;;;;;5053938;28;20751;-57
2021/09/06 04:32:31;;;;;;;3.13;1.97;;;;;;;;;;5064639;28;20414;-52
2021/09/06 04:34:57;;;;;;;3.33;1.83;;;;;;;;;;5035538;28;20421;-57
2021/09/06 04:37:23;;;;;;;3.20;1.90;;;;;;;;;;5046199;28;20403;-57
2021/09/06 04:39:49;;;;;;;2.85;1.80;;;;;;;;;;5044542;28;20441;-55
2021/09/06 04:42:15;;;;;;;3.25;1.83;;;;;;;;;;5040657;28;20405;-55
2021/09/06 04:44:41;;;;;;;2.90;1.70;;;;;;;;;;5039904;28;20391;-57
2021/09/06 04:47:07;;;;;;;3.83;1.80;;;;;;;;;;5049292;28;20734;-55
2021/09/06 04:49:33;;;;;;;4.03;2.17;;;;;;;;;;5053304;28;20414;-54
2021/09/06 04:51:59;;;;;;;3.72;2.03;;;;;;;;;;5047637;28;20397;-51
2021/09/06 04:54:25;;;;;;;2.97;1.73;;;;;;;;;;5049525;28;20400;-53
2021/09/06 04:56:51;;;;;;;3.83;1.77;;;;;;;;;;5048200;28;20915;-53
2021/09/06 04:59:21;;;;;;;3.35;2.00;;;;;;;;;;5054009;28;20404;-54
2021/09/06 05:01:47;;;;;;;3.13;1.92;;;;;;;;;;5047110;28;20400;-51
2021/09/06 05:04:13;;;;;;;2.53;1.65;;;;;;;;;;5053284;28;20382;-54
2021/09/06 05:06:39;;;;;;;3.43;2.10;;;;;;;;;;5048367;28;20854;-55
2021/09/06 05:09:05;;;;;;;3.88;2.00;;;;;;;;;;5049880;28;20475;-54
2021/09/06 05:11:32;;;;;;;3.92;2.17;;;;;;;;;;5052382;28;20403;-51
2021/09/06 05:13:58;;;;;;;5.00;2.03;;;;;;;;;;5048167;28;20450;-51
2021/09/06 05:16:24;;;;;;;4.55;2.13;;;;;;;;;;5046917;28;20402;-54
2021/09/06 05:18:50;;;;;;;3.38;1.90;;;;;;;;;;5027277;28;20427;-52
2021/09/06 05:21:16;;;;;;;4.93;2.60;;;;;;;;;;5027866;28;20754;-53
2021/09/06 05:23:43;;;;;;;3.45;1.92;;;;;;;;;;5018947;28;20383;-57
2021/09/06 05:26:08;;;;;;;3.22;1.90;;;;;;;;;;5039788;28;20459;-57
2021/09/06 05:28:34;;;;;;;3.30;1.80;;;;;;;;;;5023915;28;20399;-56
2021/09/06 05:31:03;;;;;;;3.10;1.80;;;;;;;;;;5040770;28;20397;-55
2021/09/06 05:33:29;;;;;;;2.92;1.80;;;;;;;;;;5038463;28;20466;-55
2021/09/06 05:35:55;;;;;;;3.37;1.87;;;;;;;;;;5022643;28;20387;-57
2021/09/06 05:38:21;;;;;;;3.70;1.98;;;;;;;;;;5020507;28;20403;-54
2021/09/06 05:40:47;;;;;;;3.10;1.80;;;;;;;;;;5039009;28;20885;-54
2021/09/06 05:43:13;;;;;;;3.47;2.00;;;;;;;;;;5023587;28;20406;-55
2021/09/06 05:45:39;;;;;;;3.25;1.83;;;;;;;;;;5022735;28;20407;-53
2021/09/06 05:48:05;;;;;;;4.88;1.77;;;;;;;;;;5024612;28;20969;-53
2021/09/06 05:50:31;;;;;;;2.78;1.75;;;;;;;;;;5029029;28;20383;-54
2021/09/06 05:52:57;;;;;;;2.97;1.70;;;;;;;;;;5024872;28;20394;-53
2021/09/06 05:55:23;;;;;;;4.90;2.17;;;;;;;;;;5029774;28;20404;-56
2021/09/06 05:57:49;;;;;;;3.45;2.10;;;;;;;;;;5018470;28;20402;-49
2021/09/06 06:00:16;;;;;;;3.38;1.90;;;;;;;;;;5029742;28;20498;-56
2021/09/06 06:02:42;;;;;;;5.30;2.10;;;;;;;;;;5021424;28;20789;-51
2021/09/06 06:05:09;;;;;;;3.20;2.00;;;;;;;;;;5030287;28;20437;-56
2021/09/06 06:07:35;;;;;;;2.92;1.98;;;;;;;;;;5015074;28;20419;-55
2021/09/06 06:10:01;;;;;;;4.00;1.95;;;;;;;;;;5023048;28;20395;-55
2021/09/06 06:12:28;;;;;;;3.75;1.80;;;;;;;;;;5021565;28;20430;-56
2021/09/06 06:14:55;;;;;;;3.38;1.80;;;;;;;;;;5026969;28;20803;-54
2021/09/06 06:17:21;;;;;;;3.72;1.77;;;;;;;;;;5026860;28;20387;-54
2021/09/06 06:19:47;;;;;;;3.40;1.73;;;;;;;;;;5046754;28;20432;-56
2021/09/06 06:22:13;;;;;;;3.47;1.70;;;;;;;;;;5047509;28;20444;-52
2021/09/06 06:24:39;;;;;;;2.65;1.58;;;;;;;;;;5050406;28;20743;-56
2021/09/06 06:27:05;;;;;;;3.27;1.80;;;;;;;;;;5049282;28;20766;-51
2021/09/06 06:29:31;;;;;;;4.38;1.95;;;;;;;;;;5048150;28;20417;-53
2021/09/06 06:31:57;;;;;;;3.15;1.70;;;;;;;;;;5051838;28;20885;-55
2021/09/06 06:34:23;;;;;;;3.67;1.95;;;;;;;;;;5046228;28;20405;-51
2021/09/06 06:36:49;;;;;;;2.55;1.40;;;;;;;;;;5061695;28;20402;-55
2021/09/06 06:39:17;;;;;;;4.43;2.17;;;;;;;;;;5049234;28;20440;-54
2021/09/06 06:41:46;;;;;;;3.05;1.85;;;;;;;;;;5038445;28;20410;-50
2021/09/06 06:44:11;;;;;;;4.70;2.42;;;;;;;;;;5055722;28;20404;-52
2021/09/06 06:46:37;;;;;;;4.85;2.10;;;;;;;;;;5045651;28;20403;-56
2021/09/06 06:49:03;;;;;;;3.38;1.50;;;;;;;;;;5048504;28;20400;-55
2021/09/06 06:51:29;;;;;;;2.50;1.50;;;;;;;;;;5059480;28;20781;-52
2021/09/06 06:53:55;;;;;;;2.95;1.70;;;;;;;;;;5049194;28;20422;-52
2021/09/06 06:56:21;;;;;;;4.55;1.83;;;;;;;;;;5053801;28;20390;-56
2021/09/06 06:58:47;;;;;;;4.45;1.90;;;;;;;;;;5039069;28;20424;-54
2021/09/06 07:01:13;;;;;;;3.85;1.50;;;;;;;;;;5051628;28;20450;-55
2021/09/06 07:03:39;;;;;;;3.13;1.67;;;;;;;;;;5055176;28;20956;-53
2021/09/06 07:06:05;;;;;;;3.95;2.08;;;;;;;;;;5044312;28;20520;-56
2021/09/06 07:08:31;;;;;;;3.00;1.80;;;;;;;;;;5049430;28;20778;-55
2021/09/06 07:10:57;;;;;;;3.47;1.80;;;;;;;;;;5044675;28;20767;-56
2021/09/06 07:13:23;;;;;;;2.63;1.45;;;;;;;;;;5051172;28;20396;-54
2021/09/06 07:15:49;;;;;;;4.37;2.10;;;;;;;;;;5052454;28;20394;-52
2021/09/06 07:18:15;;;;;;;4.07;2.10;;;;;;;;;;5051926;28;20409;-54
2021/09/06 07:20:41;;;;;;;3.13;1.80;;;;;;;;;;5042274;28;20398;-56
2021/09/06 07:23:07;;;;;;;3.88;1.90;;;;;;;;;;5039277;28;20734;-51
2021/09/06 07:25:33;;;;;;;3.08;1.80;;;;;;;;;;5043973;28;20881;-55
2021/09/06 07:27:59;;;;;;;4.00;1.92;;;;;;;;;;5043606;28;20410;-51
2021/09/06 07:30:25;;;;;;;4.13;1.95;;;;;;;;;;5038978;28;20432;-54
2021/09/06 07:32:51;;;;;;;3.80;1.80;;;;;;;;;;5052882;28;20381;-54
2021/09/06 07:35:18;;;;;;;4.07;2.30;;;;;;;;;;5059636;28;20515;-51
2021/09/06 07:37:44;;;;;;;4.37;2.27;;;;;;;;;;5046735;28;20452;-54
2021/09/06 07:40:11;;;;;;;4.18;2.10;;;;;;;;;;5050112;28;20413;-56
2021/09/06 07:42:40;;;;;;;2.90;1.70;;;;;;;;;;5056693;28;20899;-51
2021/09/06 07:45:07;;;;;;;3.13;1.83;;;;;;;;;;5041965;28;20393;-56
2021/09/06 07:47:34;;;;;;;3.10;1.70;;;;;;;;;;5054828;28;20385;-55
2021/09/06 07:50:00;;;;;;;3.22;1.75;;;;;;;;;;5059507;28;20575;-52
2021/09/06 07:52:26;;;;;;;2.83;1.83;;;;;;;;;;5041635;28;20857;-56
2021/09/06 07:54:52;;;;;;;4.13;2.25;;;;;;;;;;5050723;28;20389;-55
2021/09/06 07:57:18;;;;;;;3.67;2.00;;;;;;;;;;5047001;28;20428;-52
2021/09/06 07:59:44;;;;;;;3.97;2.05;;;;;;;;;;5054300;28;20443;-54
2021/09/06 08:02:10;;;;;;;3.70;1.85;;;;;;;;;;5048856;28;20393;-50
2021/09/06 08:04:36;;;;;;;3.75;2.05;;;;;;;;;;5050214;28;20897;-52
2021/09/06 08:07:02;;;;;;;3.28;1.83;;;;;;;;;;5042243;28;20397;-54
2021/09/06 08:09:28;;;;;;;3.00;1.60;;;;;;;;;;5045254;28;20407;-51
2021/09/06 08:11:56;;;;;;;6.57;2.27;;;;;;;;;;5048381;28;20401;-51
2021/09/06 08:14:22;;;;;;;5.70;2.20;;;;;;;;;;5053641;28;20396;-50
2021/09/06 08:16:48;;;;;;;3.78;2.00;;;;;;;;;;5042064;28;20390;-53
2021/09/06 08:19:14;;;;;;;5.03;1.97;;;;;;;;;;4989461;28;1669056;-54
2021/09/06 08:21:40;;;;;;;3.45;1.70;;;;;;;;;;5055709;28;20403;-52
2021/09/06 08:24:06;;;;;;;4.85;2.28;;;;;;;;;;5043271;28;20838;-52
2021/09/06 08:26:33;;;;;;;4.97;2.00;;;;;;;;;;5035190;28;20824;-51
2021/09/06 08:28:59;;;;;;;3.22;1.73;;;;;;;;;;5040806;28;20422;-50
2021/09/06 08:31:26;;;;;;;3.20;2.00;;;;;;;;;;5035627;28;20403;-50
2021/09/06 08:33:52;;;;;;;3.92;2.08;;;;;;;;;;5047392;28;20398;-52
2021/09/06 08:36:18;;;;;;;3.30;2.00;;;;;;;;;;5052037;28;20473;-51
2021/09/06 08:38:44;;;;;;;4.13;2.10;;;;;;;;;;5031522;28;20423;-50
2021/09/06 08:41:10;;;;;;;3.65;1.85;;;;;;;;;;5057489;28;20387;-50
2021/09/06 08:43:36;;;;;;;4.15;2.15;;;;;;;;;;5048576;28;20925;-52
2021/09/06 08:46:03;;;;;;;4.07;2.03;;;;;;;;;;5065121;28;20415;-50
2021/09/06 08:48:30;;;;;;;4.85;2.35;;;;;;;;;;5043916;28;21062;-51
2021/09/06 08:50:56;;;;;;;3.78;1.98;;;;;;;;;;5051427;28;20386;-51
2021/09/06 08:53:22;;;;;;;3.33;1.83;;;;;;;;;;5049505;28;20958;-53
2021/09/06 08:55:49;;;;;;;4.38;1.83;;;;;;;;;;5056865;28;20400;-54
2021/09/06 08:58:17;;;;;;;3.60;1.98;;;;;;;;;;5045918;28;21013;-56
2021/09/06 09:00:46;;;;;;;4.63;1.85;;;;;;;;;;5048315;28;20378;-54
2021/09/06 09:03:12;;;;;;;3.90;2.15;;;;;;;;;;5058173;28;20765;-54
2021/09/06 09:05:38;;;;;;;4.10;2.00;;;;;;;;;;5041586;28;20405;-52
2021/09/06 09:08:04;;;;;;;3.45;1.48;;;;;;;;;;5040145;28;21001;-55
2021/09/06 09:10:38;;;;;;;4.88;2.03;;;;;;;;;;5046935;28;20398;-53
2021/09/06 09:13:08;;;;;;;3.78;1.95;;;;;;;;;;5045146;28;20480;-57
2021/09/06 09:15:35;;;;;;;2.83;1.77;;;;;;;;;;5047673;28;20500;-56
2021/09/06 09:18:01;;;;;;;4.43;2.33;;;;;;;;;;5047691;28;20401;-53
2021/09/06 09:20:38;;;;;;;4.75;2.00;;;;;;;;;;5045029;28;20415;-55
2021/09/06 09:23:04;;;;;;;3.33;1.80;;;;;;;;;;5040616;28;20399;-57
2021/09/06 09:25:31;;;;;;;4.00;1.70;;;;;;;;;;5050572;28;20884;-57
2021/09/06 09:27:57;;;;;;;3.90;1.92;;;;;;;;;;5036856;28;20763;-54
2021/09/06 09:30:25;;;;;;;3.58;1.60;;;;;;;;;;5036036;28;20460;-55
2021/09/06 09:33:04;;;;;;;3.22;1.70;;;;;;;;;;5038359;28;23677;-53
2021/09/06 09:35:31;;;;;;;3.88;1.98;;;;;;;;;;5051111;28;20407;-55
2021/09/06 09:38:04;;;;;;;3.78;2.03;;;;;;;;;;5035230;28;20743;-54
2021/09/06 09:40:56;;;;;;;4.30;2.17;;;;;;;;;;5045125;28;20417;-57
2021/09/06 09:43:28;;;;;;;4.20;2.10;;;;;;;;;;5035576;28;20405;-56
2021/09/06 09:46:01;;;;;;;3.53;1.80;;;;;;;;;;5037699;28;20735;-55
2021/09/06 09:48:27;;;;;;;4.15;2.25;;;;;;;;;;5039777;28;20478;-51
2021/09/06 09:50:53;;;;;;;4.43;1.87;;;;;;;;;;5059263;28;20425;-56
2021/09/06 09:53:19;;;;;;;3.53;2.00;;;;;;;;;;5049540;28;20397;-56
2021/09/06 09:55:45;;;;;;;4.55;2.28;;;;;;;;;;5042256;28;20480;-54
2021/09/06 09:58:11;;;;;;;3.17;1.92;;;;;;;;;;5043320;28;20478;-55
2021/09/06 10:00:37;;;;;;;3.63;2.03;;;;;;;;;;5053225;28;20455;-57
2021/09/06 10:03:04;;;;;;;4.75;1.98;;;;;;;;;;5039957;28;20461;-52
2021/09/06 10:05:31;;;;;;;4.18;1.92;;;;;;;;;;5053136;28;20861;-57
2021/09/06 10:07:58;;;;;;;3.00;1.73;;;;;;;;;;5054854;28;20942;-52
2021/09/06 10:10:25;;;;;;;3.38;2.00;;;;;;;;;;5045316;28;20385;-55
2021/09/06 10:13:03;;;;;;;3.50;1.63;;;;;;;;;;5046682;28;20396;-54
2021/09/06 10:15:29;;;;;;;3.15;1.63;;;;;;;;;;5041320;28;20443;-56
2021/09/06 10:17:55;;;;;;;4.20;1.80;;;;;;;;;;5048996;28;20420;-51
2021/09/06 10:20:22;;;;;;;3.50;1.77;;;;;;;;;;5045069;28;20438;-54
2021/09/06 10:23:00;;;;;;;2.65;1.73;;;;;;;;;;5048325;28;20774;-53
2021/09/06 10:25:28;;;;;;;3.85;1.95;;;;;;;;;;5044139;28;20389;-52
2021/09/06 10:27:58;;;;;;;6.03;2.10;;;;;;;;;;5052765;28;20388;-56
2021/09/06 10:30:37;;;;;;;4.47;1.90;;;;;;;;;;5050162;28;20924;-52
2021/09/06 10:33:04;;;;;;;4.53;2.10;;;;;;;;;;5053713;28;20386;-57
2021/09/06 10:35:30;;;;;;;5.07;2.15;;;;;;;;;;5047682;28;20435;-55
2021/09/06 10:38:04;;;;;;;3.00;1.60;;;;;;;;;;5045337;28;20395;-54
2021/09/06 10:40:31;;;;;;;4.43;1.90;;;;;;;;;;5047473;28;20924;-55
2021/09/06 10:42:58;;;;;;;3.30;1.70;;;;;;;;;;5042079;28;20777;-52
2021/09/06 10:45:24;;;;;;;4.88;2.10;;;;;;;;;;5059246;28;20414;-53
2021/09/06 10:48:00;;;;;;;4.00;2.20;;;;;;;;;;5053529;28;20384;-55
2021/09/06 10:50:27;;;;;;;4.60;2.28;;;;;;;;;;5059076;28;20396;-52
2021/09/06 10:52:53;;;;;;;3.33;1.80;;;;;;;;;;5047546;28;20397;-53
2021/09/06 10:55:20;;;;;;;3.67;2.10;;;;;;;;;;5053018;28;20426;-54
2021/09/06 10:57:47;;;;;;;4.10;2.10;;;;;;;;;;5041395;28;20416;-57
2021/09/06 11:00:17;;;;;;;3.70;2.00;;;;;;;;;;5056596;28;20488;-53
2021/09/06 11:02:43;;;;;;;3.33;1.97;;;;;;;;;;5048293;28;20402;-51
2021/09/06 11:05:17;;;;;;;3.25;1.77;;;;;;;;;;5049518;28;20377;-53
2021/09/06 11:07:43;;;;;;;3.33;2.10;;;;;;;;;;5049315;28;20379;-51
2021/09/06 11:10:10;;;;;;;4.55;2.53;;;;;;;;;;5051687;28;20420;-53
2021/09/06 11:12:38;;;;;;;4.38;2.10;;;;;;;;;;5053560;28;20406;-54
2021/09/06 11:15:04;;;;;;;3.53;1.87;;;;;;;;;;5036766;28;20401;-51
2021/09/06 11:17:30;;;;;;;4.90;2.33;;;;;;;;;;5053378;28;20395;-54
2021/09/06 11:19:57;;;;;;;4.50;1.95;;;;;;;;;;5057554;28;20397;-54
2021/09/06 11:22:25;;;;;;;4.97;2.83;;;;;;;;;;5050229;28;20423;-54
2021/09/06 11:24:57;;;;;;;6.75;2.80;;;;;;;;;;5047650;28;20494;-55
2021/09/06 11:27:25;;;;;;;4.70;2.33;;;;;;;;;;5039710;28;20396;-52
2021/09/06 11:29:52;;;;;;;4.93;3.00;;;;;;;;;;5019907;28;20411;-51
2021/09/06 11:32:18;;;;;;;7.60;3.23;;;;;;;;;;5052368;28;20419;-51
2021/09/06 11:34:44;;;;;;;5.78;2.53;;;;;;;;;;5051697;28;20406;-51
2021/09/06 11:37:10;;;;;;;6.40;2.70;;;;;;;;;;5053762;28;20488;-52
2021/09/06 11:39:36;;;;;;;5.20;2.40;;;;;;;;;;5061044;28;20549;-56
2021/09/06 11:42:03;;;;;;;3.45;2.13;;;;;;;;;;5049782;28;20914;-55
2021/09/06 11:44:30;;;;;;;5.68;2.47;;;;;;;;;;5044344;28;20729;-53
2021/09/06 11:46:56;;;;;;;7.75;3.78;;;;;;;;;;5056971;28;20398;-55
2021/09/06 11:49:21;;;;;;;5.55;3.00;;;;;;;;;;5036723;28;20398;-52
2021/09/06 11:51:47;;;;;;;5.63;3.25;;;;;;;;;;5043299;28;20894;-51
2021/09/06 11:54:14;;;;;;;5.82;3.40;;;;;;;;;;5058794;28;20389;-53
2021/09/06 11:56:40;;;;;;;6.53;2.97;;;;;;;;;;5053342;28;20407;-54
2021/09/06 11:59:06;;;;;;;4.43;2.53;;;;;;;;;;5050376;28;20417;-53
2021/09/06 12:01:32;;;;;;;4.88;2.80;;;;;;;;;;5046490;28;20566;-51
2021/09/06 12:04:11;;;;;;;5.00;2.97;;;;;;;;;;5042463;28;20909;-53
2021/09/06 12:06:38;;;;;;;5.15;2.75;;;;;;;;;;5053984;28;20454;-51
2021/09/06 12:09:06;;;;;;;5.18;2.90;;;;;;;;;;5062528;28;20500;-51
2021/09/06 12:11:39;;;;;;;5.13;2.70;;;;;;;;;;5060495;28;20382;-53
2021/09/06 12:14:07;;;;;;;5.70;3.28;;;;;;;;;;5055916;28;20411;-56
2021/09/06 12:16:34;;;;;;;5.35;2.97;;;;;;;;;;5053854;28;20872;-57
2021/09/06 12:19:00;;;;;;;5.20;3.00;;;;;;;;;;5053282;28;20419;-56
2021/09/06 12:21:27;;;;;;;6.47;3.30;;;;;;;;;;5053274;28;20409;-57
2021/09/06 12:24:00;;;;;;;6.20;3.60;;;;;;;;;;5050517;28;20394;-53
2021/09/06 12:26:37;;;;;;;7.00;3.40;;;;;;;;;;5054097;28;20414;-51
2021/09/06 12:29:03;;;;;;;6.13;3.17;;;;;;;;;;5059230;28;20795;-52
2021/09/06 12:31:39;;;;;;;6.63;3.60;;;;;;;;;;5050804;28;20393;-53
2021/09/06 12:34:05;;;;;;;5.63;3.67;;;;;;;;;;5046078;28;20408;-61
2021/09/06 12:36:31;;;;;;;5.68;3.28;;;;;;;;;;5044073;28;20810;-58
2021/09/06 12:38:57;;;;;;;8.00;3.50;;;;;;;;;;5036682;28;20795;-57
2021/09/06 12:41:23;;;;;;;6.20;3.45;;;;;;;;;;5031685;28;20452;-57
2021/09/06 12:43:48;;;;;;;7.28;3.20;;;;;;;;;;5053861;28;20395;-58
2021/09/06 12:46:15;;;;;;;5.75;3.22;;;;;;;;;;5056468;28;21114;-58
2021/09/06 12:48:41;;;;;;;5.03;3.07;;;;;;;;;;5047099;28;20453;-60
2021/09/06 12:51:07;;;;;;;5.78;3.10;;;;;;;;;;5046793;28;20761;-60
2021/09/06 12:53:33;;;;;;;5.68;2.92;;;;;;;;;;5039847;28;20409;-58
2021/09/06 12:55:59;;;;;;;5.20;2.73;;;;;;;;;;5053740;28;20427;-59
2021/09/06 12:58:25;;;;;;;5.60;2.67;;;;;;;;;;5049441;28;20902;-60
2021/09/06 13:00:51;;;;;;;7.03;2.75;;;;;;;;;;5050720;28;20108;-59
2021/09/06 13:03:17;;;;;;;7.35;2.65;;;;;;;;;;5046983;28;20040;-60
2021/09/06 13:05:43;;;;;;;3.30;2.30;;;;;;;;;;5054728;28;20388;-58
2021/09/06 13:08:09;;;;;;;4.10;2.40;;;;;;;;;;5043733;28;20028;-58
2021/09/06 13:10:34;;;;;;;5.53;2.58;;;;;;;;;;5052545;28;20033;-60
2021/09/06 13:13:01;;;;;;;4.07;2.30;;;;;;;;;;5039625;28;20055;-59
2021/09/06 13:15:27;;;;;;;5.35;2.53;;;;;;;;;;5048734;28;20070;-57
2021/09/06 13:17:53;;;;;;;7.53;2.50;;;;;;;;;;5043284;28;20148;-60
2021/09/06 13:20:19;;;;;;;4.05;2.45;;;;;;;;;;5038623;28;20490;-60
2021/09/06 13:22:45;;;;;;;3.35;2.03;;;;;;;;;;5044791;28;20575;-59
2021/09/06 13:25:11;;;;;;;4.53;2.53;;;;;;;;;;5050225;28;20029;-59
2021/09/06 13:27:37;;;;;;;4.03;2.10;;;;;;;;;;5051348;28;20082;-58
2021/09/06 13:30:06;;;;;;;4.82;2.25;;;;;;;;;;5052428;28;20526;-59
2021/09/06 13:32:32;;;;;;;4.18;2.40;;;;;;;;;;5046025;28;20033;-59
2021/09/06 13:34:58;;;;;;;4.22;2.65;;;;;;;;;;5039263;28;20036;-58
2021/09/06 13:37:24;;;;;;;6.40;2.50;;;;;;;;;;5058277;28;20037;-58
2021/09/06 13:39:50;;;;;;;5.78;2.78;;;;;;;;;;5050397;28;20059;-59
2021/09/06 13:42:16;;;;;;;6.47;3.13;;;;;;;;;;5053502;28;20032;-59
2021/09/06 13:44:42;;;;;;;4.75;2.28;;;;;;;;;;5059897;28;20053;-58
2021/09/06 13:47:08;;;;;;;5.13;2.80;;;;;;;;;;5052284;28;20028;-57
2021/09/06 13:49:34;;;;;;;7.03;3.33;;;;;;;;;;5058143;28;20060;-57
2021/09/06 13:52:00;;;;;;;4.75;2.72;;;;;;;;;;5043077;28;20052;-58
2021/09/06 13:54:26;;;;;;;3.83;2.55;;;;;;;;;;5057378;28;20381;-58
2021/09/06 13:56:52;;;;;;;5.18;2.50;;;;;;;;;;5051337;28;20037;-58
2021/09/06 13:59:19;;;;;;;4.90;2.70;;;;;;;;;;5061762;28;20090;-60
2021/09/06 14:01:45;;;;;;;3.97;2.50;;;;;;;;;;5051205;28;20021;-58
2021/09/06 14:04:11;;;;;;;5.50;2.67;;;;;;;;;;5053433;28;20473;-60
2021/09/06 14:06:37;;;;;;;3.88;2.13;;;;;;;;;;5027518;28;20079;-60
2021/09/06 14:09:03;;;;;;;3.83;2.38;;;;;;;;;;5049353;28;20033;-59
2021/09/06 14:11:29;;;;;;;5.38;3.00;;;;;;;;;;5047504;28;20127;-59
2021/09/06 14:13:55;;;;;;;4.93;2.83;;;;;;;;;;5061856;28;20095;-57
2021/09/06 14:16:21;;;;;;;4.20;2.03;;;;;;;;;;5041220;28;20022;-59
2021/09/06 14:18:47;;;;;;;4.57;2.50;;;;;;;;;;5041558;28;20441;-58
2021/09/06 14:21:13;;;;;;;5.40;2.83;;;;;;;;;;5050004;28;20033;-57
2021/09/06 14:23:40;;;;;;;3.47;2.42;;;;;;;;;;5043387;28;20041;-58
2021/09/06 14:26:06;;;;;;;3.80;2.22;;;;;;;;;;5051852;28;20028;-58
2021/09/06 14:28:32;;;;;;;4.47;2.40;;;;;;;;;;5040270;28;20061;-60
2021/09/06 14:30:58;;;;;;;4.93;2.63;;;;;;;;;;5036983;28;20049;-55
2021/09/06 14:33:27;;;;;;;7.47;3.80;;;;;;;;;;5051591;28;20029;-57
2021/09/06 14:35:54;;;;;;;5.90;3.17;;;;;;;;;;5061275;28;20588;-57
2021/09/06 14:38:20;;;;;;;6.38;2.92;;;;;;;;;;5050912;28;20029;-57
2021/09/06 14:40:46;;;;;;;5.28;2.60;;;;;;;;;;5036046;28;20024;-57